createdAt,value
2022-08-12T00:02:07.205Z,100038.25
2022-08-12T00:04:31.793Z,100038.59
2022-08-12T00:06:53.294Z,100037.34
2022-08-12T00:09:15.449Z,100032.50
2022-08-12T00:11:37.372Z,100043.25
2022-08-12T00:13:58.724Z,100040.47
2022-08-12T00:16:20.698Z,100034.00
2022-08-12T00:18:42.059Z,100029.63
2022-08-12T00:21:03.509Z,100043.84
2022-08-12T00:23:25.249Z,100041.06
2022-08-12T00:26:20.655Z,100042.25
2022-08-12T00:28:39.230Z,100045.03
2022-08-12T00:31:00.547Z,100048.63
2022-08-12T00:33:22.203Z,100048.53
2022-08-12T00:35:42.969Z,100042.13
2022-08-12T00:38:05.183Z,100046.69
2022-08-12T00:40:29.069Z,100045.44
2022-08-12T00:42:33.079Z,100045.09
2022-08-12T00:44:35.898Z,100046.34
2022-08-12T00:46:49.697Z,100048.41
2022-08-12T00:48:52.701Z,100036.84
2022-08-12T00:50:56.916Z,100042.06
2022-08-12T00:53:02.787Z,100054.69
2022-08-12T00:55:06.043Z,100045.91
2022-08-12T00:57:15.028Z,100048.69
2022-08-12T00:59:17.652Z,100046.16
2022-08-12T01:01:22.083Z,100057.28
2022-08-12T01:03:26.258Z,100052.84
2022-08-12T01:05:50.336Z,100062.38
2022-08-12T01:08:12.441Z,100056.69
2022-08-12T01:10:33.474Z,100058.22
2022-08-12T01:12:39.222Z,100057.75
2022-08-12T01:14:43.998Z,100054.97
2022-08-12T01:16:48.838Z,100054.97
2022-08-12T01:18:55.406Z,100054.97
2022-08-12T01:21:19.680Z,100059.38
2022-08-12T01:23:47.778Z,100056.94
2022-08-12T01:25:55.677Z,100059.25
2022-08-12T01:28:02.059Z,100058.47
2022-08-12T01:30:07.955Z,100050.13
2022-08-12T01:32:12.947Z,100053.72
2022-08-12T01:34:36.642Z,100050.94
2022-08-12T01:36:46.864Z,100053.72
2022-08-12T01:38:51.335Z,100058.94
2022-08-12T01:40:59.286Z,100051.41
2022-08-12T01:43:17.178Z,100060.97
2022-08-12T01:45:24.994Z,100062.16
2022-08-12T01:47:47.365Z,100059.00
2022-08-12T01:50:05.568Z,100052.31
2022-08-12T01:52:22.461Z,100051.97
2022-08-12T01:54:27.796Z,100047.09
2022-08-12T01:56:42.002Z,100051.25
2022-08-12T01:59:04.923Z,100053.31
2022-08-12T02:01:12.103Z,100054.94
2022-08-12T02:03:26.590Z,100051.44
2022-08-12T02:06:08.669Z,100052.38
2022-08-12T02:08:48.743Z,100050.41
2022-08-12T02:11:19.369Z,100047.28
2022-08-12T02:13:49.770Z,100049.31
2022-08-12T02:16:28.263Z,100056.22
2022-08-12T02:19:03.565Z,100057.13
2022-08-12T02:21:47.910Z,100053.66
2022-08-12T02:23:51.075Z,100056.44
2022-08-12T02:25:57.645Z,100053.75
2022-08-12T02:28:06.102Z,100063.44
2022-08-12T02:30:14.650Z,100050.00
2022-08-12T02:32:17.404Z,100063.63
2022-08-12T02:34:22.096Z,100063.72
2022-08-12T02:36:25.461Z,100064.63
2022-08-12T02:38:29.286Z,100064.28
2022-08-12T02:40:35.277Z,100067.97
2022-08-12T02:42:44.569Z,100070.84
2022-08-12T02:44:51.855Z,100066.56
2022-08-12T02:46:57.160Z,100067.09
2022-08-12T02:49:10.045Z,100059.19
2022-08-12T02:51:23.746Z,100062.97
2022-08-12T02:53:28.166Z,100056.69
2022-08-12T02:55:35.249Z,100064.19
2022-08-12T02:57:39.859Z,100063.69
2022-08-12T02:59:43.506Z,100060.28
2022-08-12T03:01:48.725Z,100062.34
2022-08-12T03:03:55.830Z,100064.34
2022-08-12T03:06:13.492Z,100063.94
2022-08-12T03:08:32.389Z,100064.41
2022-08-12T03:10:42.539Z,100063.16
2022-08-12T03:12:51.023Z,100065.13
2022-08-12T03:14:56.170Z,100060.81
2022-08-12T03:17:11.605Z,100059.56
2022-08-12T03:19:14.323Z,100070.06
2022-08-12T03:21:52.226Z,100065.66
2022-08-12T03:23:42.687Z,100070.50
2022-08-12T03:25:45.463Z,100080.91
2022-08-12T03:27:51.884Z,100067.78
2022-08-12T03:29:57.407Z,100070.66
2022-08-12T03:32:00.797Z,100073.16
2022-08-12T03:34:09.938Z,100073.22
2022-08-12T03:36:18.427Z,100072.50
2022-08-12T03:38:27.673Z,100079.31
2022-08-12T03:41:01.102Z,100081.34
2022-08-12T03:43:25.368Z,100081.34
2022-08-12T03:45:51.847Z,100090.91
2022-08-12T03:48:19.116Z,100094.78
2022-08-12T03:50:40.830Z,100087.13
2022-08-12T03:53:02.229Z,100087.59
2022-08-12T03:55:24.440Z,100085.25
2022-08-12T03:57:46.085Z,100074.03
2022-08-12T04:00:10.031Z,100091.09
2022-08-12T04:02:17.025Z,100084.88
2022-08-12T04:04:23.768Z,100089.72
2022-08-12T04:06:34.942Z,100081.88
2022-08-12T04:08:39.612Z,100083.56
2022-08-12T04:11:00.914Z,100079.28
2022-08-12T04:13:17.043Z,100078.94
2022-08-12T04:15:20.157Z,100080.25
2022-08-12T04:17:23.445Z,100082.28
2022-08-12T04:19:26.867Z,100082.75
2022-08-12T04:21:32.146Z,100080.81
2022-08-12T04:23:35.884Z,100071.28
2022-08-12T04:25:40.320Z,100083.75
2022-08-12T04:27:46.364Z,100091.75
2022-08-12T04:30:29.750Z,100076.94
2022-08-12T04:32:12.488Z,100090.34
2022-08-12T04:34:16.105Z,100085.63
2022-08-12T04:36:18.848Z,100093.34
2022-08-12T04:38:24.384Z,100096.91
2022-08-12T04:40:30.548Z,100098.25
2022-08-12T04:42:33.222Z,100085.44
2022-08-12T04:44:35.879Z,100095.19
2022-08-12T04:46:39.243Z,100102.44
2022-08-12T04:48:42.145Z,100092.16
2022-08-12T04:50:45.823Z,100097.47
2022-08-12T04:52:49.622Z,100097.53
2022-08-12T04:54:52.533Z,100090.47
2022-08-12T04:57:04.526Z,100095.78
2022-08-12T04:59:08.090Z,100087.53
2022-08-12T05:01:11.112Z,100095.25
2022-08-12T05:03:14.442Z,100085.34
2022-08-12T05:05:25.050Z,100093.81
2022-08-12T05:07:27.942Z,100085.94
2022-08-12T05:10:00.425Z,100097.16
2022-08-12T05:11:54.170Z,100093.22
2022-08-12T05:14:00.568Z,100085.31
2022-08-12T05:16:09.285Z,100086.19
2022-08-12T05:18:20.357Z,100088.69
2022-08-12T05:20:26.286Z,100087.50
2022-08-12T05:22:28.970Z,100092.81
2022-08-12T05:24:31.610Z,100089.31
2022-08-12T05:26:34.268Z,100085.75
2022-08-12T05:28:37.124Z,100084.97
2022-08-12T05:30:41.619Z,100088.63
2022-08-12T05:32:44.191Z,100091.47
2022-08-12T05:34:50.816Z,100078.31
2022-08-12T05:36:53.505Z,100082.28
2022-08-12T05:38:59.629Z,100079.16
2022-08-12T05:41:05.135Z,100075.69
2022-08-12T05:43:08.362Z,100077.78
2022-08-12T05:45:11.194Z,100072.63
2022-08-12T05:47:14.852Z,100079.13
2022-08-12T05:49:17.562Z,100079.56
2022-08-12T05:51:24.675Z,100071.19
2022-08-12T05:53:32.744Z,100070.47
2022-08-12T05:55:36.664Z,100076.97
2022-08-12T05:57:39.403Z,100069.78
2022-08-12T05:59:42.311Z,100065.41
2022-08-12T06:02:10.418Z,100071.03
2022-08-12T06:04:10.742Z,100063.06
2022-08-12T06:06:17.294Z,100061.09
2022-08-12T06:08:20.413Z,100064.78
2022-08-12T06:10:32.308Z,100064.09
2022-08-12T06:12:36.113Z,100066.84
2022-08-12T06:14:39.418Z,100067.19
2022-08-12T06:16:44.177Z,100064.47
2022-08-12T06:18:47.466Z,100059.69
2022-08-12T06:20:50.076Z,100065.34
2022-08-12T06:22:56.814Z,100062.19
2022-08-12T06:25:00.678Z,100064.25
2022-08-12T06:27:03.612Z,100052.25
2022-08-12T06:29:06.234Z,100057.09
2022-08-12T06:31:26.702Z,100054.31
2022-08-12T06:33:55.038Z,100043.56
2022-08-12T06:35:58.624Z,100046.03
2022-08-12T06:38:03.859Z,100034.81
2022-08-12T06:40:11.293Z,100044.50
2022-08-12T06:42:33.559Z,100033.31
2022-08-12T06:44:36.514Z,100038.16
2022-08-12T06:46:39.679Z,100034.19
2022-08-12T06:48:45.167Z,100027.41
2022-08-12T06:50:49.508Z,100021.44
2022-08-12T06:52:52.370Z,100021.06
2022-08-12T06:54:55.952Z,100041.53
2022-08-12T06:58:08.294Z,100030.72
2022-08-12T06:59:21.808Z,100025.09
2022-08-12T07:01:25.602Z,100021.91
2022-08-12T07:03:28.988Z,100024.31
2022-08-12T07:05:32.058Z,100026.31
2022-08-12T07:07:34.610Z,100023.94
2022-08-12T07:09:58.068Z,100017.13
2022-08-12T07:12:02.676Z,100025.53
2022-08-12T07:14:12.366Z,100018.72
2022-08-12T07:16:18.029Z,100026.31
2022-08-12T07:18:20.690Z,100022.31
2022-08-12T07:20:50.258Z,100013.91
2022-08-12T07:22:46.236Z,100012.66
2022-08-12T07:25:11.163Z,100022.69
2022-08-12T07:27:14.599Z,100017.50
2022-08-12T07:29:17.452Z,100015.09
2022-08-12T07:31:20.093Z,100024.31
2022-08-12T07:33:25.626Z,100020.31
2022-08-12T07:35:33.207Z,100018.31
2022-08-12T07:37:42.240Z,100012.31
2022-08-12T07:39:50.763Z,100019.16
2022-08-12T07:42:04.788Z,100021.59
2022-08-12T07:44:09.416Z,100014.38
2022-08-12T07:46:15.371Z,100013.53
2022-08-12T07:48:18.043Z,100005.13
2022-08-12T07:50:23.738Z,100004.72
2022-08-12T07:52:26.691Z,100007.53
2022-08-12T07:54:29.253Z,100017.53
2022-08-12T07:56:32.542Z,100012.34
2022-08-12T07:58:38.566Z,100008.34
2022-08-12T08:00:41.123Z,100010.72
2022-08-12T08:02:43.810Z,100005.94
2022-08-12T08:04:58.330Z,100017.16
2022-08-12T08:07:02.004Z,100017.16
2022-08-12T08:09:05.704Z,100016.75
2022-08-12T08:11:27.103Z,99997.91
2022-08-12T08:13:29.670Z,99996.28
2022-08-12T08:16:01.765Z,99993.91
2022-08-12T08:18:04.711Z,99999.53
2022-08-12T08:20:10.713Z,99997.09
2022-08-12T08:22:13.488Z,99991.47
2022-08-12T08:24:16.228Z,99998.25
2022-08-12T08:26:20.834Z,99999.06
2022-08-12T08:28:23.413Z,99994.63
2022-08-12T08:30:27.579Z,99989.06
2022-08-12T08:32:30.066Z,99984.22
2022-08-12T08:34:53.960Z,99989.81
2022-08-12T08:36:58.038Z,99980.59
2022-08-12T08:39:00.554Z,99979.00
2022-08-12T08:42:15.683Z,99982.22
2022-08-12T08:43:45.788Z,99988.25
2022-08-12T08:45:49.264Z,99976.97
2022-08-12T08:47:52.009Z,99975.72
2022-08-12T08:49:57.650Z,99973.69
2022-08-12T08:52:00.280Z,99970.44
2022-08-12T08:54:03.137Z,99971.31
2022-08-12T08:56:05.936Z,99966.53
2022-08-12T08:58:09.115Z,99976.13
2022-08-12T09:00:17.507Z,99969.66
2022-08-12T09:02:20.072Z,99966.47
2022-08-12T09:06:53.369Z,99963.28
2022-08-12T09:08:56.924Z,99958.44
2022-08-12T09:12:06.451Z,99958.84
2022-08-12T09:14:12.384Z,99956.91
2022-08-12T09:16:07.359Z,99958.53
2022-08-12T09:18:12.058Z,99949.28
2022-08-12T09:20:16.891Z,99944.84
2022-08-12T09:22:21.024Z,99952.41
2022-08-12T09:24:27.662Z,99943.59
2022-08-12T09:26:31.491Z,99932.72
2022-08-12T09:28:37.090Z,99935.84
2022-08-12T09:30:44.870Z,99945.03
2022-08-12T09:33:03.972Z,99947.84
2022-08-12T09:35:22.494Z,99946.66
2022-08-12T09:37:55.375Z,99941.06
2022-08-12T09:40:06.164Z,99932.38
2022-08-12T09:42:56.878Z,99936.31
2022-08-12T09:45:17.785Z,99940.72
2022-08-12T09:47:29.231Z,99938.25
2022-08-12T09:49:37.162Z,99928.22
2022-08-12T09:51:47.717Z,99934.63
2022-08-12T09:54:08.425Z,99928.13
2022-08-12T09:57:00.569Z,99920.47
2022-08-12T09:58:58.445Z,99926.94
2022-08-12T10:01:06.302Z,99925.78
2022-08-12T10:03:31.796Z,99928.94
2022-08-12T10:06:19.437Z,99926.06
2022-08-12T10:08:10.659Z,99914.78
2022-08-12T10:10:22.311Z,99912.78
2022-08-12T10:13:07.257Z,99908.41
2022-08-12T10:15:07.299Z,99902.84
2022-08-12T10:17:10.028Z,99907.63
2022-08-12T10:19:17.675Z,99914.03
2022-08-12T10:21:23.131Z,99908.34
2022-08-12T10:23:39.454Z,99904.69
2022-08-12T10:26:18.523Z,99902.56
2022-08-12T10:29:01.842Z,99895.63
2022-08-12T10:31:06.188Z,99909.28
2022-08-12T10:33:17.971Z,99899.53
2022-08-12T10:35:22.041Z,99893.97
2022-08-12T10:38:33.437Z,99890.31
2022-08-12T10:40:03.200Z,99887.19
2022-08-12T10:42:31.181Z,99887.91
2022-08-12T10:44:36.786Z,99889.91
2022-08-12T10:46:39.962Z,99887.31
2022-08-12T10:48:58.445Z,99884.78
2022-08-12T10:52:04.804Z,99889.63
2022-08-12T10:53:45.944Z,99878.69
2022-08-12T10:55:56.259Z,99883.41
2022-08-12T10:58:27.577Z,99877.34
2022-08-12T11:00:34.662Z,99870.56
2022-08-12T11:07:03.402Z,99868.22
2022-08-12T11:08:37.188Z,99865.69
2022-08-12T11:10:01.687Z,99861.69
2022-08-12T11:12:35.748Z,99866.63
2022-08-12T11:14:49.922Z,99862.91
2022-08-12T11:17:34.149Z,99860.91
2022-08-12T11:19:22.500Z,99855.97
2022-08-12T11:21:57.513Z,99858.91
2022-08-12T11:23:53.693Z,99868.09
2022-08-12T11:26:00.492Z,99856.19
2022-08-12T11:28:08.338Z,99862.91
2022-08-12T11:30:31.101Z,99866.97
2022-08-12T11:32:39.169Z,99869.41
2022-08-12T11:34:53.607Z,99856.47
2022-08-12T11:37:01.218Z,99862.16
2022-08-12T11:39:07.502Z,99862.66
2022-08-12T11:41:10.277Z,99849.75
2022-08-12T11:43:19.709Z,99850.53
2022-08-12T11:45:23.106Z,99852.19
2022-08-12T11:47:25.894Z,99840.03
2022-08-12T11:49:32.316Z,99848.63
2022-08-12T11:51:36.369Z,99839.84
2022-08-12T11:53:57.169Z,99842.41
2022-08-12T11:56:05.059Z,99842.06
2022-08-12T11:58:44.144Z,99838.88
2022-08-12T12:02:53.996Z,99840.44
2022-08-12T12:04:57.113Z,99829.75
2022-08-12T12:07:06.675Z,99827.19
2022-08-12T12:09:09.523Z,99833.72
2022-08-12T12:11:12.196Z,99828.56
2022-08-12T12:14:05.326Z,99821.34
2022-08-12T12:15:41.229Z,99809.38
2022-08-12T12:17:43.918Z,99822.19
2022-08-12T12:19:46.609Z,99817.13
2022-08-12T12:21:49.717Z,99823.28
2022-08-12T12:23:52.347Z,99813.44
2022-08-12T12:26:08.119Z,99809.38
2022-08-12T12:28:36.931Z,99810.53
2022-08-12T12:30:37.814Z,99811.97
2022-08-12T12:32:40.532Z,99801.34
2022-08-12T12:35:13.872Z,99808.41
2022-08-12T12:37:05.983Z,99812.06
2022-08-12T12:39:10.431Z,99811.28
2022-08-12T12:41:16.463Z,99801.00
2022-08-12T12:43:28.606Z,99810.41
2022-08-12T12:45:44.175Z,99808.59
2022-08-12T12:47:59.086Z,99807.25
2022-08-12T12:50:01.726Z,99811.66
2022-08-12T12:52:19.250Z,99807.81
2022-08-12T12:54:28.971Z,99798.28
2022-08-12T12:56:34.421Z,99788.84
2022-08-12T12:58:37.950Z,99800.91
2022-08-12T13:00:50.997Z,99802.00
2022-08-12T13:02:58.271Z,99786.38
2022-08-12T13:05:01.385Z,99785.91
2022-08-12T13:07:06.847Z,99786.81
2022-08-12T13:09:13.261Z,99782.50
2022-08-12T13:11:16.012Z,99787.03
2022-08-12T13:14:07.845Z,99777.19
2022-08-12T13:15:45.360Z,99791.94
2022-08-12T13:18:02.436Z,99773.63
2022-08-12T13:20:11.412Z,99778.13
2022-08-12T13:22:33.984Z,99770.44
2022-08-12T13:24:39.705Z,99777.00
2022-08-12T13:26:42.630Z,99774.28
2022-08-12T13:28:53.122Z,99776.19
2022-08-12T13:31:00.018Z,99772.38
2022-08-12T13:33:02.987Z,99765.75
2022-08-12T13:35:19.757Z,99772.03
2022-08-12T13:37:54.475Z,99764.75
2022-08-12T13:39:59.122Z,99765.53
2022-08-12T13:42:14.358Z,99764.13
2022-08-12T13:44:20.123Z,99759.19
2022-08-12T13:46:25.833Z,99765.75
2022-08-12T13:48:30.092Z,99756.69
2022-08-12T13:50:36.699Z,99751.81
2022-08-12T13:52:40.278Z,99753.25
2022-08-12T13:54:56.359Z,99766.44
2022-08-12T13:56:59.285Z,99743.81
2022-08-12T13:59:08.534Z,99740.00
2022-08-12T14:01:11.466Z,99755.22
2022-08-12T14:03:16.389Z,99750.78
2022-08-12T14:05:37.463Z,99739.50
2022-08-12T14:07:54.107Z,99747.56
2022-08-12T14:10:16.174Z,99747.25
2022-08-12T14:12:21.750Z,99736.16
2022-08-12T14:14:31.259Z,99741.38
2022-08-12T14:16:49.131Z,99736.38
2022-08-12T14:18:54.739Z,99741.47
2022-08-12T14:21:04.364Z,99742.75
2022-08-12T14:23:16.508Z,99736.25
2022-08-12T14:25:30.603Z,99748.44
2022-08-12T14:28:02.523Z,99742.09
2022-08-12T14:30:05.495Z,99739.41
2022-08-12T14:32:18.131Z,99736.69
2022-08-12T14:34:20.742Z,99731.38
2022-08-12T14:36:30.804Z,99735.09
2022-08-12T14:38:42.585Z,99737.84
2022-08-12T14:40:50.803Z,99735.47
2022-08-12T14:42:54.109Z,99731.69
2022-08-12T14:45:01.033Z,99733.06
2022-08-12T14:47:07.989Z,99726.56
2022-08-12T14:50:33.378Z,99736.81
2022-08-12T14:52:59.078Z,99728.13
2022-08-12T14:56:08.921Z,99722.69
2022-08-12T14:59:23.393Z,99719.78
2022-08-12T15:01:42.672Z,99717.38
2022-08-12T15:03:58.045Z,99711.09
2022-08-12T15:06:44.717Z,99710.81
2022-08-12T15:08:33.621Z,99715.53
2022-08-12T15:10:37.937Z,99708.25
2022-08-12T15:12:40.907Z,99711.25
2022-08-12T15:14:45.618Z,99704.78
2022-08-12T15:16:48.902Z,99707.94
2022-08-12T15:18:55.396Z,99708.59
2022-08-12T15:21:04.969Z,99712.94
2022-08-12T15:23:17.438Z,99713.25
2022-08-12T15:25:20.945Z,99715.66
2022-08-12T15:27:31.693Z,99717.50
2022-08-12T15:29:46.063Z,99700.66
2022-08-12T15:32:00.631Z,99705.25
2022-08-12T15:34:07.980Z,99719.06
2022-08-12T15:36:19.177Z,99711.59
2022-08-12T15:38:31.579Z,99711.72
2022-08-12T15:40:38.571Z,99715.44
2022-08-12T15:42:51.087Z,99714.97
2022-08-12T15:44:54.701Z,99711.47
2022-08-12T15:46:58.953Z,99712.47
2022-08-12T15:49:01.477Z,99716.41
2022-08-12T15:51:04.501Z,99714.06
2022-08-12T15:53:14.545Z,99714.47
2022-08-12T15:55:20.254Z,99712.34
2022-08-12T15:57:24.676Z,99726.69
2022-08-12T15:59:51.198Z,99723.69
2022-08-12T16:01:50.713Z,99723.56
2022-08-12T16:04:00.816Z,99723.84
2022-08-12T16:06:11.322Z,99733.69
2022-08-12T16:08:24.018Z,99722.25
2022-08-12T16:10:31.175Z,99731.56
2022-08-12T16:12:39.817Z,99720.38
2022-08-12T16:14:42.407Z,99729.16
2022-08-12T16:16:48.652Z,99724.13
2022-08-12T16:18:59.635Z,99726.66
2022-08-12T16:21:09.128Z,99733.72
2022-08-12T16:23:35.868Z,99731.91
2022-08-12T16:26:02.857Z,99727.69
2022-08-12T16:28:03.519Z,99721.78
2022-08-12T16:30:06.704Z,99732.19
2022-08-12T16:32:09.435Z,99740.31
2022-08-12T16:34:38.431Z,99732.34
2022-08-12T16:36:43.090Z,99734.06
2022-08-12T16:38:46.125Z,99734.94
2022-08-12T16:40:48.800Z,99738.63
2022-08-12T16:43:01.576Z,99731.09
2022-08-12T16:45:04.910Z,99733.59
2022-08-12T16:47:10.849Z,99738.47
2022-08-12T16:49:19.472Z,99742.53
2022-08-12T16:51:27.086Z,99735.38
2022-08-12T16:53:43.918Z,99747.41
2022-08-12T16:55:51.988Z,99737.84
2022-08-12T16:57:56.498Z,99745.91
2022-08-12T16:59:59.170Z,99741.53
2022-08-12T17:02:02.720Z,99742.00
2022-08-12T17:04:09.480Z,99738.00
2022-08-12T17:06:13.142Z,99733.25
2022-08-12T17:08:29.213Z,99726.88
2022-08-12T17:10:36.715Z,99737.75
2022-08-12T17:12:40.075Z,99728.53
2022-08-12T17:14:42.892Z,99735.00
2022-08-12T17:16:52.159Z,99733.78
2022-08-12T17:18:57.465Z,99730.59
2022-08-12T17:21:08.173Z,99728.59
2022-08-12T17:23:19.614Z,99728.63
2022-08-12T17:25:22.945Z,99727.03
2022-08-12T17:27:30.894Z,99721.06
2022-08-12T17:30:01.475Z,99718.63
2022-08-12T17:32:05.318Z,99727.84
2022-08-12T17:34:17.269Z,99724.66
2022-08-12T17:36:23.841Z,99723.88
2022-08-12T17:38:29.653Z,99721.88
2022-08-12T17:40:37.049Z,99730.69
2022-08-12T17:42:42.482Z,99731.47
2022-08-12T17:44:45.118Z,99731.91
2022-08-12T17:46:53.588Z,99732.69
2022-08-12T17:48:57.836Z,99727.50
2022-08-12T17:51:02.932Z,99720.66
2022-08-12T17:53:08.074Z,99724.28
2022-08-12T17:55:40.527Z,99720.66
2022-08-12T17:57:41.661Z,99715.06
2022-08-12T17:59:47.815Z,99713.88
2022-08-12T18:01:51.783Z,99709.06
2022-08-12T18:04:05.321Z,99711.06
2022-08-12T18:06:27.982Z,99715.88
2022-08-12T18:08:33.553Z,99724.66
2022-08-12T18:10:55.667Z,99717.44
2022-08-12T18:13:02.418Z,99729.44
2022-08-12T18:15:09.071Z,99724.63
2022-08-12T18:17:14.099Z,99730.19
2022-08-12T18:19:17.711Z,99726.13
2022-08-12T18:21:20.300Z,99730.13
2022-08-12T18:23:26.005Z,99729.28
2022-08-12T18:26:15.768Z,99716.09
2022-08-12T18:28:16.695Z,99727.66
2022-08-12T18:30:29.942Z,99720.84
2022-08-12T18:32:53.893Z,99725.25
2022-08-12T18:35:10.844Z,99720.84
2022-08-12T18:37:29.449Z,99716.78
2022-08-12T18:39:56.692Z,99712.78
2022-08-12T18:41:59.943Z,99714.72
2022-08-12T18:44:09.498Z,99722.69
2022-08-12T18:46:13.659Z,99724.69
2022-08-12T18:48:16.789Z,99721.06
2022-08-12T18:50:19.386Z,99722.66
2022-08-12T18:52:31.072Z,99725.00
2022-08-12T18:54:36.189Z,99729.78
2022-08-12T18:56:39.726Z,99731.72
2022-08-12T18:58:59.584Z,99730.53
2022-08-12T19:01:05.562Z,99723.31
2022-08-12T19:03:23.556Z,99719.25
2022-08-12T19:05:53.367Z,99724.78
2022-08-12T19:08:01.688Z,99716.00
2022-08-12T19:10:07.799Z,99722.38
2022-08-12T19:12:30.634Z,99722.31
2022-08-12T19:14:35.683Z,99726.28
2022-08-12T19:16:40.102Z,99717.06
2022-08-12T19:18:44.675Z,99721.44
2022-08-12T19:22:59.877Z,99716.63
2022-08-12T19:25:59.336Z,99714.56
2022-08-12T19:27:50.982Z,99721.69
2022-08-12T19:30:06.469Z,99725.25
2022-08-12T19:32:14.412Z,99718.81
2022-08-12T19:34:42.037Z,99720.41
2022-08-12T19:36:43.667Z,99722.69
2022-08-12T19:38:56.423Z,99721.09
2022-08-12T19:41:03.997Z,99715.88
2022-08-12T19:43:20.703Z,99722.25
2022-08-12T19:45:23.665Z,99723.03
2022-08-12T19:47:46.854Z,99718.22
2022-08-12T19:49:55.112Z,99719.00
2022-08-12T19:51:57.896Z,99722.22
2022-08-12T19:54:01.619Z,99718.59
2022-08-12T19:56:05.312Z,99716.59
2022-08-12T19:58:18.266Z,99715.75
2022-08-12T20:00:22.555Z,99714.94
2022-08-12T20:02:33.095Z,99715.75
2022-08-12T20:04:40.240Z,99720.47
2022-08-12T20:06:51.436Z,99722.06
2022-08-12T20:08:57.133Z,99718.44
2022-08-12T20:12:11.455Z,99716.81
2022-08-12T20:13:27.012Z,99716.03
2022-08-12T20:15:44.985Z,99709.25
2022-08-12T20:17:50.997Z,99718.03
2022-08-12T20:20:17.306Z,99719.19
2022-08-12T20:22:23.897Z,99718.75
2022-08-12T20:24:37.818Z,99719.09
2022-08-12T20:26:44.223Z,99724.19
2022-08-12T20:28:53.526Z,99720.59
2022-08-12T20:31:00.011Z,99716.56
2022-08-12T20:33:06.822Z,99719.31
2022-08-12T20:35:24.346Z,99725.59
2022-08-12T20:38:06.865Z,99725.91
2022-08-12T20:39:56.490Z,99720.22
2022-08-12T20:42:07.351Z,99728.53
2022-08-12T20:44:16.866Z,99721.28
2022-08-12T20:46:25.614Z,99729.59
2022-08-12T20:48:30.591Z,99718.41
2022-08-12T20:50:36.930Z,99725.13
2022-08-12T20:52:40.318Z,99722.25
2022-08-12T20:54:51.328Z,99724.66
2022-08-12T20:56:54.200Z,99719.38
2022-08-12T20:58:58.098Z,99726.94
2022-08-12T21:01:02.396Z,99724.50
2022-08-12T21:03:24.546Z,99713.28
2022-08-12T21:06:12.299Z,99721.59
2022-08-12T21:08:11.900Z,99714.31
2022-08-12T21:10:14.876Z,99725.88
2022-08-12T21:12:30.924Z,99725.88
2022-08-12T21:14:53.541Z,99730.66
2022-08-12T21:17:01.117Z,99730.66
2022-08-12T21:19:08.006Z,99727.44
2022-08-12T21:21:23.227Z,99735.34
2022-08-12T21:23:30.796Z,99740.88
2022-08-12T21:25:45.369Z,99733.22
2022-08-12T21:27:57.862Z,99730.75
2022-08-12T21:30:06.557Z,99729.53
2022-08-12T21:32:39.826Z,99736.66
2022-08-12T21:34:34.377Z,99735.72
2022-08-12T21:36:48.202Z,99734.13
2022-08-12T21:39:01.593Z,99736.41
2022-08-12T21:41:23.311Z,99726.00
2022-08-12T21:43:25.964Z,99720.75
2022-08-12T21:45:47.858Z,99729.53
2022-08-12T21:48:10.166Z,99728.66
2022-08-12T21:50:15.572Z,99729.84
2022-08-12T21:52:18.151Z,99719.41
2022-08-12T21:54:32.808Z,99728.53
2022-08-12T21:56:35.479Z,99731.25
2022-08-12T21:58:39.537Z,99728.03
2022-08-12T22:00:42.296Z,99729.19
2022-08-12T22:03:07.911Z,99725.94
2022-08-12T22:05:29.113Z,99724.31
2022-08-12T22:07:46.285Z,99731.06
2022-08-12T22:09:57.216Z,99730.25
2022-08-12T22:12:21.953Z,99725.84
2022-08-12T22:14:26.852Z,99726.59
2022-08-12T22:16:31.105Z,99726.16
2022-08-12T22:18:50.595Z,99716.59
2022-08-12T22:20:56.831Z,99722.50
2022-08-12T22:23:02.210Z,99725.69
2022-08-12T22:25:05.914Z,99722.47
2022-08-12T22:27:32.047Z,99715.31
2022-08-12T22:29:51.038Z,99727.16
2022-08-12T22:31:54.790Z,99729.06
2022-08-12T22:34:02.766Z,99717.50
2022-08-12T22:36:06.967Z,99724.97
2022-08-12T22:38:14.369Z,99718.22
2022-08-12T22:40:20.086Z,99713.84
2022-08-12T22:42:41.349Z,99720.56
2022-08-12T22:45:02.540Z,99716.19
2022-08-12T22:47:53.953Z,99721.75
2022-08-12T22:49:53.620Z,99720.88
2022-08-12T22:52:08.323Z,99718.03
2022-08-12T22:54:35.468Z,99721.28
2022-08-12T22:56:33.980Z,99719.66
2022-08-12T22:58:40.654Z,99717.66
2022-08-12T23:00:48.533Z,99720.88
2022-08-12T23:03:02.886Z,99726.84
2022-08-12T23:05:10.542Z,99719.22
2022-08-12T23:07:13.349Z,99729.09
2022-08-12T23:09:17.668Z,99730.63
2022-08-12T23:11:33.868Z,99728.66
2022-08-12T23:13:55.043Z,99730.97
2022-08-12T23:16:00.689Z,99730.97
2022-08-12T23:18:03.792Z,99732.16
2022-08-12T23:20:06.963Z,99727.41
2022-08-12T23:22:36.574Z,99726.63
2022-08-12T23:24:37.012Z,99717.25
2022-08-12T23:26:59.709Z,99730.84
2022-08-12T23:29:29.330Z,99728.00
2022-08-12T23:32:02.834Z,99727.94
2022-08-12T23:34:00.856Z,99725.88
2022-08-12T23:36:04.911Z,99726.25
2022-08-12T23:38:10.591Z,99728.59
2022-08-12T23:40:32.908Z,99716.97
2022-08-12T23:42:35.646Z,99722.84
2022-08-12T23:44:40.244Z,99726.09
2022-08-12T23:46:43.253Z,99722.84
2022-08-12T23:48:53.201Z,99716.16
2022-08-12T23:51:21.696Z,99717.28
2022-08-12T23:53:32.430Z,99722.44
2022-08-12T23:55:40.707Z,99722.44
2022-08-12T23:58:17.122Z,99724.38
